createdAt,value
2022-12-03T00:00:19.634Z,80.38
2022-12-03T00:02:46.138Z,80.57
2022-12-03T00:05:12.729Z,80.93
2022-12-03T00:07:39.182Z,80.72
2022-12-03T00:10:06.563Z,80.63
2022-12-03T00:12:33.055Z,80.72
2022-12-03T00:14:59.480Z,80.66
2022-12-03T00:17:25.925Z,80.51
2022-12-03T00:19:52.310Z,80.42
2022-12-03T00:22:18.737Z,80.52
2022-12-03T00:24:45.580Z,80.50
2022-12-03T00:27:12.014Z,80.75
2022-12-03T00:29:38.411Z,80.91
2022-12-03T00:32:05.024Z,81.27
2022-12-03T00:34:31.384Z,80.67
2022-12-03T00:36:57.751Z,81.05
2022-12-03T00:39:24.107Z,80.68
2022-12-03T00:41:50.474Z,80.72
2022-12-03T00:44:16.896Z,80.88
2022-12-03T00:46:43.314Z,80.99
2022-12-03T00:49:09.842Z,81.00
2022-12-03T00:51:36.262Z,81.65
2022-12-03T00:54:02.801Z,81.13
2022-12-03T00:56:29.209Z,81.50
2022-12-03T00:58:55.626Z,81.57
2022-12-03T01:01:22.095Z,81.64
2022-12-03T01:03:48.567Z,81.49
2022-12-03T01:06:14.977Z,81.74
2022-12-03T01:08:41.401Z,81.77
2022-12-03T01:11:27.772Z,81.44
2022-12-03T01:13:54.154Z,81.63
2022-12-03T01:16:20.637Z,81.69
2022-12-03T01:18:47.107Z,82.07
2022-12-03T01:21:13.507Z,82.09
2022-12-03T01:23:39.951Z,82.09
2022-12-03T01:26:06.374Z,82.02
2022-12-03T01:28:32.822Z,81.72
2022-12-03T01:31:18.036Z,81.55
2022-12-03T01:33:44.465Z,81.70
2022-12-03T01:36:10.834Z,81.96
2022-12-03T01:38:37.202Z,82.20
2022-12-03T01:41:08.556Z,82.36
2022-12-03T01:43:38.063Z,82.69
2022-12-03T01:46:04.579Z,82.37
2022-12-03T01:48:33.520Z,82.24
2022-12-03T01:51:00.972Z,82.26
2022-12-03T01:53:27.412Z,82.22
2022-12-03T01:55:53.794Z,82.12
2022-12-03T01:58:24.542Z,82.20
2022-12-03T02:00:51.038Z,82.19
2022-12-03T02:03:21.176Z,81.96
2022-12-03T02:05:48.043Z,82.49
2022-12-03T02:08:43.906Z,82.46
2022-12-03T02:11:23.868Z,82.33
2022-12-03T02:13:52.611Z,82.09
2022-12-03T02:16:19.103Z,81.59
2022-12-03T02:18:45.728Z,81.86
2022-12-03T02:21:24.129Z,81.96
2022-12-03T02:24:15.469Z,82.26
2022-12-03T02:26:41.851Z,82.52
2022-12-03T02:29:08.308Z,81.78
2022-12-03T02:31:34.755Z,81.84
2022-12-03T02:34:06.136Z,81.83
2022-12-03T02:36:33.074Z,81.62
2022-12-03T02:38:59.567Z,81.71
2022-12-03T02:41:44.392Z,81.56
2022-12-03T02:44:10.894Z,81.68
2022-12-03T02:46:37.413Z,82.26
2022-12-03T02:49:05.583Z,81.90
2022-12-03T02:51:32.826Z,82.05
2022-12-03T02:53:59.585Z,81.91
2022-12-03T02:56:28.550Z,81.60
2022-12-03T02:58:57.818Z,81.79
2022-12-03T03:01:24.377Z,81.09
2022-12-03T03:03:51.210Z,81.50
2022-12-03T03:06:18.496Z,81.46
2022-12-03T03:08:45.092Z,81.42
2022-12-03T03:11:11.852Z,81.50
2022-12-03T03:13:39.055Z,81.85
2022-12-03T03:16:07.217Z,82.12
2022-12-03T03:18:34.303Z,81.52
2022-12-03T03:21:00.941Z,81.35
2022-12-03T03:23:27.442Z,80.93
2022-12-03T03:26:00.743Z,80.85
2022-12-03T03:28:28.529Z,81.10
2022-12-03T03:30:55.674Z,80.96
2022-12-03T03:33:22.207Z,80.85
2022-12-03T03:35:49.176Z,81.12
2022-12-03T03:38:17.836Z,81.38
2022-12-03T03:40:44.423Z,81.40
2022-12-03T03:43:11.942Z,81.56
2022-12-03T03:45:38.385Z,82.24
2022-12-03T03:48:04.987Z,82.18
2022-12-03T03:50:31.695Z,81.88
2022-12-03T03:52:59.047Z,81.51
2022-12-03T03:55:25.586Z,81.90
2022-12-03T03:57:51.978Z,81.78
2022-12-03T04:00:18.823Z,82.02
2022-12-03T04:02:45.470Z,81.63
2022-12-03T04:05:17.591Z,81.21
2022-12-03T04:07:44.115Z,81.45
2022-12-03T04:10:29.648Z,81.26
2022-12-03T04:12:56.206Z,81.14
2022-12-03T04:15:23.014Z,80.94
2022-12-03T04:18:09.749Z,81.21
2022-12-03T04:20:36.778Z,81.16
2022-12-03T04:23:03.523Z,81.35
2022-12-03T04:25:48.503Z,81.21
2022-12-03T04:28:33.626Z,81.31
2022-12-03T04:31:00.073Z,81.16
2022-12-03T04:33:45.029Z,80.90
2022-12-03T04:36:11.438Z,81.51
2022-12-03T04:38:37.859Z,81.20
2022-12-03T04:41:04.437Z,81.31
2022-12-03T04:43:32.904Z,81.34
2022-12-03T04:45:59.878Z,81.56
2022-12-03T04:48:26.538Z,81.45
2022-12-03T04:50:53.094Z,81.59
2022-12-03T04:53:19.765Z,81.50
2022-12-03T04:55:46.161Z,81.26
2022-12-03T04:58:12.527Z,82.12
2022-12-03T05:00:39.103Z,82.06
2022-12-03T05:03:05.517Z,82.12
2022-12-03T05:05:31.969Z,81.90
2022-12-03T05:07:58.344Z,82.18
2022-12-03T05:10:24.774Z,81.85
2022-12-03T05:12:51.136Z,82.17
2022-12-03T05:15:17.546Z,82.09
2022-12-03T05:17:43.897Z,81.89
2022-12-03T05:20:29.570Z,81.55
2022-12-03T05:22:55.986Z,82.29
2022-12-03T05:25:22.348Z,82.22
2022-12-03T05:27:48.794Z,81.73
2022-12-03T05:30:15.252Z,81.45
2022-12-03T05:32:41.667Z,81.67
2022-12-03T05:35:09.243Z,81.26
2022-12-03T05:37:35.606Z,81.03
2022-12-03T05:40:02.035Z,81.26
2022-12-03T05:42:47.030Z,81.19
2022-12-03T05:45:13.462Z,80.74
2022-12-03T05:47:39.839Z,80.87
2022-12-03T05:50:07.016Z,80.57
2022-12-03T05:52:33.419Z,80.28
2022-12-03T05:54:59.838Z,80.11
2022-12-03T05:57:26.280Z,80.14
2022-12-03T05:59:52.647Z,79.93
2022-12-03T06:02:19.303Z,80.29
2022-12-03T06:04:45.826Z,80.88
2022-12-03T06:07:14.206Z,81.05
2022-12-03T06:09:40.980Z,81.25
2022-12-03T06:12:08.631Z,81.06
2022-12-03T06:14:35.688Z,81.05
2022-12-03T06:17:02.314Z,81.09
2022-12-03T06:19:28.682Z,80.97
2022-12-03T06:21:55.432Z,80.52
2022-12-03T06:24:21.861Z,80.51
2022-12-03T06:26:48.290Z,80.33
2022-12-03T06:29:14.653Z,80.16
2022-12-03T06:31:41.037Z,80.16
2022-12-03T06:34:07.436Z,80.15
2022-12-03T06:36:33.830Z,80.14
2022-12-03T06:39:00.208Z,80.08
2022-12-03T06:41:26.630Z,79.70
2022-12-03T06:43:53.039Z,79.86
2022-12-03T06:46:19.521Z,79.64
2022-12-03T06:48:46.014Z,80.00
2022-12-03T06:51:12.388Z,79.95
2022-12-03T06:53:38.800Z,79.87
2022-12-03T06:56:05.531Z,80.22
2022-12-03T06:58:31.920Z,80.11
2022-12-03T07:00:58.336Z,79.96
2022-12-03T07:03:24.993Z,79.75
2022-12-03T07:05:51.400Z,79.62
2022-12-03T07:08:17.884Z,80.13
2022-12-03T07:10:44.548Z,79.60
2022-12-03T07:13:10.907Z,80.13
2022-12-03T07:15:37.318Z,79.59
2022-12-03T07:18:04.177Z,79.72
2022-12-03T07:20:30.586Z,79.41
2022-12-03T07:22:56.946Z,78.89
2022-12-03T07:25:23.921Z,78.79
2022-12-03T07:27:50.692Z,78.71
2022-12-03T07:30:17.272Z,78.78
2022-12-03T07:32:43.743Z,78.43
2022-12-03T07:35:10.274Z,78.25
2022-12-03T07:37:39.846Z,78.02
2022-12-03T07:40:06.827Z,78.14
2022-12-03T07:42:33.243Z,77.81
2022-12-03T07:44:59.760Z,77.74
2022-12-03T07:47:26.207Z,77.61
2022-12-03T07:49:52.577Z,78.03
2022-12-03T07:52:18.952Z,77.00
2022-12-03T07:54:45.339Z,77.40
2022-12-03T07:57:11.719Z,77.32
2022-12-03T07:59:38.120Z,77.46
2022-12-03T08:02:04.733Z,76.95
2022-12-03T08:04:31.194Z,76.67
2022-12-03T08:06:57.605Z,76.73
2022-12-03T08:09:24.015Z,75.97
2022-12-03T08:11:50.502Z,75.83
2022-12-03T08:14:18.479Z,75.42
2022-12-03T08:16:46.192Z,75.67
2022-12-03T08:19:14.731Z,75.68
2022-12-03T08:21:41.535Z,75.84
2022-12-03T08:24:19.752Z,75.73
2022-12-03T08:26:48.347Z,75.79
2022-12-03T08:29:18.121Z,76.33
2022-12-03T08:31:54.741Z,76.08
2022-12-03T08:34:23.751Z,76.00
2022-12-03T08:37:02.228Z,76.45
2022-12-03T08:39:34.076Z,76.55
2022-12-03T08:42:35.398Z,76.74
2022-12-03T08:45:20.477Z,76.82
2022-12-03T08:47:46.854Z,77.05
2022-12-03T08:50:29.708Z,76.84
2022-12-03T08:53:29.818Z,77.62
2022-12-03T08:56:01.569Z,78.04
2022-12-03T08:58:30.865Z,78.40
2022-12-03T09:01:11.020Z,78.54
2022-12-03T09:03:39.384Z,78.26
2022-12-03T09:06:05.992Z,79.03
2022-12-03T09:08:47.523Z,78.93
2022-12-03T09:11:14.089Z,78.24
2022-12-03T09:13:41.012Z,78.55
2022-12-03T09:16:08.015Z,78.57
2022-12-03T09:18:34.494Z,78.73
2022-12-03T09:21:00.929Z,78.41
2022-12-03T09:23:27.319Z,78.56
2022-12-03T09:25:53.696Z,78.36
2022-12-03T09:28:20.091Z,78.94
2022-12-03T09:30:46.455Z,78.64
2022-12-03T09:33:13.937Z,78.67
2022-12-03T09:35:40.384Z,78.67
2022-12-03T09:38:06.807Z,78.74
2022-12-03T09:40:33.970Z,79.10
2022-12-03T09:43:00.815Z,78.75
2022-12-03T09:45:27.215Z,78.90
2022-12-03T09:47:54.886Z,79.63
2022-12-03T09:50:23.398Z,79.29
2022-12-03T09:52:51.045Z,79.64
2022-12-03T09:55:21.574Z,79.26
2022-12-03T09:57:47.975Z,78.97
2022-12-03T10:00:19.199Z,79.83
2022-12-03T10:02:47.162Z,80.10
2022-12-03T10:05:14.500Z,80.41
2022-12-03T10:07:41.445Z,80.71
2022-12-03T10:10:15.751Z,80.48
2022-12-03T10:12:42.227Z,80.93
2022-12-03T10:15:12.346Z,80.34
2022-12-03T10:17:38.739Z,80.63
2022-12-03T10:20:06.068Z,80.28
2022-12-03T10:22:37.019Z,80.20
2022-12-03T10:25:12.588Z,79.65
2022-12-03T10:27:39.674Z,80.25
2022-12-03T10:30:19.493Z,79.95
2022-12-03T10:32:50.978Z,79.81
2022-12-03T10:35:23.058Z,80.09
2022-12-03T10:38:24.820Z,80.16
2022-12-03T10:40:51.260Z,80.50
2022-12-03T10:43:26.950Z,80.01
2022-12-03T10:46:01.993Z,80.12
2022-12-03T10:48:30.321Z,79.92
2022-12-03T10:51:03.591Z,79.25
2022-12-03T10:53:31.684Z,79.26
2022-12-03T10:55:59.891Z,79.07
2022-12-03T10:58:31.403Z,78.66
2022-12-03T11:00:58.972Z,78.42
2022-12-03T11:03:27.291Z,78.69
2022-12-03T11:05:54.834Z,78.47
2022-12-03T11:08:26.987Z,78.13
2022-12-03T11:11:01.026Z,78.06
2022-12-03T11:13:33.332Z,78.21
2022-12-03T11:16:04.864Z,78.62
2022-12-03T11:18:37.387Z,78.05
2022-12-03T11:21:11.952Z,78.33
2022-12-03T11:23:44.444Z,78.91
2022-12-03T11:26:29.112Z,78.54
2022-12-03T11:28:57.623Z,78.75
2022-12-03T11:31:46.510Z,78.35
2022-12-03T11:34:19.321Z,78.63
2022-12-03T11:37:10.489Z,78.28
2022-12-03T11:39:52.955Z,78.80
2022-12-03T11:42:25.661Z,78.46
2022-12-03T11:45:04.310Z,78.54
2022-12-03T11:47:39.028Z,78.14
2022-12-03T11:50:41.272Z,77.91
2022-12-03T11:53:14.112Z,78.51
2022-12-03T11:55:44.425Z,78.83
2022-12-03T11:58:22.017Z,79.00
2022-12-03T12:00:50.723Z,78.64
2022-12-03T12:03:49.914Z,78.71
2022-12-03T12:06:18.897Z,78.78
2022-12-03T12:08:51.408Z,78.53
2022-12-03T12:11:30.621Z,79.05
2022-12-03T12:14:24.022Z,78.84
2022-12-03T12:16:52.539Z,79.35
2022-12-03T12:19:36.955Z,79.22
2022-12-03T12:22:15.465Z,79.15
2022-12-03T12:24:47.875Z,79.41
2022-12-03T12:27:34.525Z,79.34
2022-12-03T12:30:12.962Z,79.33
2022-12-03T12:32:51.399Z,79.11
2022-12-03T12:35:17.778Z,79.29
2022-12-03T12:37:58.076Z,79.40
2022-12-03T12:40:30.900Z,79.60
2022-12-03T12:43:02.190Z,79.78
2022-12-03T12:45:35.122Z,80.13
2022-12-03T12:48:09.969Z,80.16
2022-12-03T12:50:39.733Z,79.89
2022-12-03T12:53:24.800Z,80.62
2022-12-03T12:56:02.319Z,80.22
2022-12-03T12:58:31.942Z,80.06
2022-12-03T13:01:01.105Z,79.89
2022-12-03T13:03:34.772Z,79.82
2022-12-03T13:06:02.287Z,80.12
2022-12-03T13:08:32.245Z,80.20
2022-12-03T13:11:00.180Z,80.23
2022-12-03T13:13:43.346Z,80.13
2022-12-03T13:16:18.559Z,80.11
2022-12-03T13:18:47.224Z,79.78
2022-12-03T13:21:24.508Z,80.53
2022-12-03T13:23:56.471Z,81.28
2022-12-03T13:26:37.755Z,81.27
2022-12-03T13:29:14.996Z,80.84
2022-12-03T13:31:44.390Z,80.83
2022-12-03T13:34:16.952Z,80.90
2022-12-03T13:36:45.139Z,80.71
2022-12-03T13:39:18.726Z,79.94
2022-12-03T13:42:03.658Z,79.77
2022-12-03T13:44:31.943Z,79.88
2022-12-03T13:47:06.972Z,79.89
2022-12-03T13:49:34.510Z,79.91
2022-12-03T13:52:00.926Z,79.71
2022-12-03T13:54:29.347Z,78.76
2022-12-03T13:56:55.737Z,77.90
2022-12-03T13:59:26.143Z,77.91
2022-12-03T14:01:52.958Z,77.13
2022-12-03T14:04:19.359Z,77.38
2022-12-03T14:06:45.751Z,77.88
2022-12-03T14:09:12.216Z,78.03
2022-12-03T14:11:57.285Z,77.68
2022-12-03T14:14:29.805Z,78.15
2022-12-03T14:16:59.880Z,77.72
2022-12-03T14:19:26.765Z,78.27
2022-12-03T14:21:53.213Z,77.99
2022-12-03T14:24:19.838Z,78.19
2022-12-03T14:26:49.170Z,77.78
2022-12-03T14:29:15.632Z,77.74
2022-12-03T14:31:42.555Z,77.81
2022-12-03T14:34:09.078Z,78.13
2022-12-03T14:36:35.462Z,77.86
2022-12-03T14:39:01.849Z,77.99
2022-12-03T14:41:46.738Z,77.68
2022-12-03T14:44:13.179Z,77.40
2022-12-03T14:46:39.611Z,77.45
2022-12-03T14:49:06.097Z,77.21
2022-12-03T14:51:32.644Z,77.78
2022-12-03T14:53:59.215Z,77.49
2022-12-03T14:56:25.639Z,77.09
2022-12-03T14:58:55.003Z,77.05
2022-12-03T15:01:21.482Z,76.94
2022-12-03T15:03:47.914Z,77.19
2022-12-03T15:06:14.340Z,77.90
2022-12-03T15:08:41.104Z,77.56
2022-12-03T15:11:07.696Z,77.32
2022-12-03T15:13:34.126Z,77.25
2022-12-03T15:16:00.485Z,77.42
2022-12-03T15:18:26.918Z,77.07
2022-12-03T15:20:53.291Z,77.67
2022-12-03T15:23:19.643Z,77.71
2022-12-03T15:25:46.832Z,77.51
2022-12-03T15:28:13.207Z,77.35
2022-12-03T15:30:39.664Z,77.91
2022-12-03T15:33:06.287Z,77.94
2022-12-03T15:35:32.879Z,77.86
2022-12-03T15:37:59.655Z,77.26
2022-12-03T15:40:26.280Z,77.26
2022-12-03T15:42:52.731Z,77.80
2022-12-03T15:45:19.114Z,77.70
2022-12-03T15:47:45.832Z,77.68
2022-12-03T15:50:13.964Z,77.84
2022-12-03T15:52:40.595Z,77.85
2022-12-03T15:55:07.515Z,77.90
2022-12-03T15:57:33.931Z,78.07
2022-12-03T16:00:00.384Z,78.27
2022-12-03T16:02:33.460Z,78.14
2022-12-03T16:05:01.357Z,77.98
2022-12-03T16:07:27.888Z,77.83
2022-12-03T16:09:55.142Z,78.24
2022-12-03T16:12:21.654Z,78.04
2022-12-03T16:14:48.074Z,77.87
2022-12-03T16:17:14.575Z,78.14
2022-12-03T16:19:40.935Z,78.24
2022-12-03T16:22:07.308Z,78.03
2022-12-03T16:24:33.710Z,77.89
2022-12-03T16:27:00.128Z,78.30
2022-12-03T16:29:26.492Z,77.77
2022-12-03T16:31:52.890Z,78.15
2022-12-03T16:34:19.325Z,78.21
2022-12-03T16:36:45.752Z,78.08
2022-12-03T16:39:12.739Z,77.75
2022-12-03T16:41:39.496Z,78.38
2022-12-03T16:44:07.650Z,78.58
2022-12-03T16:46:34.144Z,78.79
2022-12-03T16:49:00.609Z,78.50
2022-12-03T16:51:28.041Z,78.93
2022-12-03T16:53:54.802Z,78.27
2022-12-03T16:56:21.199Z,78.33
2022-12-03T16:58:47.612Z,78.57
2022-12-03T17:01:14.052Z,78.47
2022-12-03T17:03:40.665Z,78.70
2022-12-03T17:06:07.223Z,78.47
2022-12-03T17:08:33.775Z,79.06
2022-12-03T17:11:00.162Z,79.38
2022-12-03T17:13:26.656Z,78.95
2022-12-03T17:15:53.078Z,79.63
2022-12-03T17:18:19.536Z,79.08
2022-12-03T17:20:45.966Z,79.30
2022-12-03T17:23:12.427Z,78.96
2022-12-03T17:25:38.834Z,78.97
2022-12-03T17:28:05.268Z,78.99
2022-12-03T17:30:31.663Z,78.98
2022-12-03T17:32:58.072Z,79.41
2022-12-03T17:35:25.028Z,78.80
2022-12-03T17:37:51.387Z,78.67
2022-12-03T17:40:17.784Z,78.72
2022-12-03T17:42:44.164Z,79.24
2022-12-03T17:45:11.099Z,78.84
2022-12-03T17:47:37.538Z,78.70
2022-12-03T17:50:04.135Z,78.74
2022-12-03T17:52:30.553Z,79.14
2022-12-03T17:55:18.074Z,78.95
2022-12-03T17:57:43.328Z,79.65
2022-12-03T18:00:10.289Z,79.63
2022-12-03T18:02:36.716Z,80.13
2022-12-03T18:05:03.693Z,80.36
2022-12-03T18:07:30.178Z,80.38
2022-12-03T18:09:57.072Z,80.99
2022-12-03T18:12:23.947Z,80.84
2022-12-03T18:14:50.351Z,80.52
2022-12-03T18:17:16.745Z,80.98
2022-12-03T18:19:43.149Z,80.92
2022-12-03T18:22:09.783Z,80.51
2022-12-03T18:24:36.234Z,80.69
2022-12-03T18:27:02.667Z,80.87
2022-12-03T18:29:29.097Z,81.18
2022-12-03T18:31:55.560Z,81.01
2022-12-03T18:34:21.989Z,80.66
2022-12-03T18:36:48.743Z,80.69
2022-12-03T18:39:27.070Z,80.35
2022-12-03T18:41:53.770Z,80.02
2022-12-03T18:44:20.264Z,80.23
2022-12-03T18:46:54.835Z,80.43
2022-12-03T18:49:22.068Z,80.18
2022-12-03T18:51:49.312Z,79.30
2022-12-03T18:54:16.942Z,79.87
2022-12-03T18:56:43.305Z,79.56
2022-12-03T18:59:09.784Z,79.08
2022-12-03T19:01:36.546Z,79.61
2022-12-03T19:04:03.599Z,79.85
2022-12-03T19:06:30.492Z,79.02
2022-12-03T19:08:57.575Z,79.31
2022-12-03T19:11:24.312Z,78.95
2022-12-03T19:13:51.231Z,78.70
2022-12-03T19:16:17.668Z,79.40
2022-12-03T19:18:44.254Z,78.66
2022-12-03T19:21:15.089Z,78.67
2022-12-03T19:23:47.208Z,78.64
2022-12-03T19:26:25.455Z,78.67
2022-12-03T19:28:53.476Z,78.60
2022-12-03T19:31:20.120Z,78.39
2022-12-03T19:33:46.777Z,78.19
2022-12-03T19:36:24.545Z,78.18
2022-12-03T19:38:56.709Z,79.05
2022-12-03T19:41:26.658Z,79.29
2022-12-03T19:43:54.754Z,78.45
2022-12-03T19:46:22.626Z,78.60
2022-12-03T19:48:49.132Z,78.74
2022-12-03T19:51:33.618Z,78.91
2022-12-03T19:54:01.713Z,78.98
2022-12-03T19:56:30.204Z,79.05
2022-12-03T19:58:56.965Z,79.47
2022-12-03T20:01:28.961Z,79.10
2022-12-03T20:03:57.231Z,78.89
2022-12-03T20:06:26.903Z,78.87
2022-12-03T20:09:05.033Z,78.49
2022-12-03T20:11:33.978Z,78.44
2022-12-03T20:14:08.882Z,78.31
2022-12-03T20:16:35.907Z,78.19
2022-12-03T20:19:05.238Z,78.34
2022-12-03T20:21:33.518Z,78.19
2022-12-03T20:24:00.507Z,78.47
2022-12-03T20:26:27.511Z,78.18
2022-12-03T20:28:55.029Z,78.34
2022-12-03T20:31:23.304Z,78.60
2022-12-03T20:33:51.744Z,78.64
2022-12-03T20:36:20.573Z,78.06
2022-12-03T20:38:47.106Z,78.29
2022-12-03T20:41:15.688Z,78.64
2022-12-03T20:43:42.136Z,78.36
2022-12-03T20:46:18.934Z,78.09
2022-12-03T20:48:45.717Z,78.12
2022-12-03T20:51:15.123Z,78.20
2022-12-03T20:53:42.104Z,78.40
2022-12-03T20:56:09.114Z,78.10
2022-12-03T20:58:35.960Z,78.37
2022-12-03T21:01:16.113Z,78.50
2022-12-03T21:03:42.918Z,79.12
2022-12-03T21:06:10.255Z,78.69
2022-12-03T21:08:41.389Z,78.60
2022-12-03T21:11:10.192Z,78.91
2022-12-03T21:13:36.601Z,78.27
2022-12-03T21:16:05.763Z,78.13
2022-12-03T21:18:32.579Z,78.62
2022-12-03T21:21:00.887Z,78.47
2022-12-03T21:23:28.600Z,78.85
2022-12-03T21:26:00.749Z,78.78
2022-12-03T21:28:27.127Z,79.04
2022-12-03T21:30:53.547Z,78.65
2022-12-03T21:33:20.004Z,79.02
2022-12-03T21:35:46.421Z,78.73
2022-12-03T21:38:12.946Z,79.12
2022-12-03T21:40:39.350Z,78.71
2022-12-03T21:43:05.755Z,78.98
2022-12-03T21:45:32.328Z,79.00
2022-12-03T21:47:58.860Z,78.80
2022-12-03T21:50:25.380Z,79.16
2022-12-03T21:52:52.665Z,79.02
2022-12-03T21:55:19.058Z,78.75
2022-12-03T21:57:45.439Z,79.25
2022-12-03T22:00:12.463Z,78.80
2022-12-03T22:02:40.102Z,78.39
2022-12-03T22:05:08.255Z,78.66
2022-12-03T22:07:35.482Z,78.65
2022-12-03T22:10:02.151Z,78.85
2022-12-03T22:12:28.527Z,78.72
2022-12-03T22:14:57.044Z,78.61
2022-12-03T22:17:27.214Z,78.28
2022-12-03T22:19:53.833Z,78.61
2022-12-03T22:22:20.595Z,78.69
2022-12-03T22:24:47.207Z,79.18
2022-12-03T22:27:14.350Z,78.86
2022-12-03T22:29:40.768Z,78.87
2022-12-03T22:32:07.204Z,78.93
2022-12-03T22:34:33.728Z,78.50
2022-12-03T22:37:00.095Z,79.16
2022-12-03T22:39:26.501Z,79.48
2022-12-03T22:41:52.924Z,79.26
2022-12-03T22:44:19.324Z,78.94
2022-12-03T22:46:45.784Z,79.13
2022-12-03T22:49:12.942Z,78.93
2022-12-03T22:51:39.515Z,79.50
2022-12-03T22:54:06.214Z,78.79
2022-12-03T22:56:32.931Z,79.19
2022-12-03T22:58:59.758Z,78.99
2022-12-03T23:01:29.973Z,78.81
2022-12-03T23:03:56.665Z,78.84
2022-12-03T23:06:23.675Z,79.46
2022-12-03T23:08:50.541Z,79.17
2022-12-03T23:11:17.587Z,78.99
2022-12-03T23:13:44.112Z,79.33
2022-12-03T23:16:16.383Z,79.57
2022-12-03T23:18:42.880Z,79.53
2022-12-03T23:21:09.338Z,79.72
2022-12-03T23:23:35.739Z,79.43
2022-12-03T23:26:07.538Z,79.45
2022-12-03T23:28:35.894Z,79.24
2022-12-03T23:31:03.340Z,79.13
2022-12-03T23:33:33.985Z,79.42
2022-12-03T23:36:05.618Z,79.35
2022-12-03T23:38:32.033Z,79.37
2022-12-03T23:41:06.470Z,79.34
2022-12-03T23:43:33.195Z,79.34
2022-12-03T23:46:08.056Z,79.06
2022-12-03T23:48:34.704Z,79.49
2022-12-03T23:51:05.839Z,79.34
2022-12-03T23:53:34.335Z,79.82
2022-12-03T23:56:03.980Z,79.53
2022-12-03T23:58:30.346Z,79.50
